Terminal Aerodrome Forecast
Issued by NWS Dodge City, KS

Home | Current Version | Previous Version | Text Only | Print | Product List | Glossary On
Versions: 1 2 3 4 5 6 7 8 9 10 11 12 13 14 15 16 17 18 19
000
FTUS43 KDDC 242324
TAFDDC
TAF
KDDC 242324Z 2500/2524 16016KT P6SM SCT045 BKN060 BKN100
     FM251400 11008KT P6SM VCTS OVC020CB
     FM251600 06007KT P6SM VCTS OVC008CB
     FM252200 02008KT P6SM VCTS OVC015CB=

USA.gov is the U.S. government's official web portal to all federal, state and local government web resources and services.